Time;durP1;ratioP1;P1;durP2;ratioP2;P2;SDS_P1;SDS_P2;PMS_P1;PMS_P2;Temp;Humidity;BMP_temperature;BMP_pressure;BME280_temperature;BME280_humidity;BME280_pressure;Samples;Min_cycle;Max_cycle;Signal;HPM_P1;HPM_P2
2022/12/01 00:01:30;;;;;;;70.55;16.38;;;10.10;91.70;;;;;;5107859;28;20032;-55
2022/12/01 00:03:55;;;;;;;77.35;17.88;;;10.10;91.70;;;;;;5107742;28;20042;-55
2022/12/01 00:06:21;;;;;;;70.63;17.25;;;10.10;91.80;;;;;;5126034;28;20036;-55
2022/12/01 00:11:33;;;;;;;71.85;15.80;;;10.10;91.70;;;;;;5096254;28;20092;-55
2022/12/01 00:13:59;;;;;;;70.28;16.50;;;10.10;91.70;;;;;;5090815;28;20032;-55
2022/12/01 00:16:25;;;;;;;72.35;16.10;;;10.10;91.60;;;;;;5090499;28;20119;-55
2022/12/01 00:18:51;;;;;;;74.68;15.63;;;10.10;91.60;;;;;;5125728;28;20035;-55
2022/12/01 00:21:18;;;;;;;50.92;14.35;;;10.00;91.60;;;;;;5107555;28;20034;-55
2022/12/01 00:23:46;;;;;;;67.10;16.13;;;10.00;91.60;;;;;;5107002;28;20030;-55
2022/12/01 00:26:11;;;;;;;52.20;15.05;;;10.00;91.70;;;;;;5107495;28;20024;-55
2022/12/01 00:28:37;;;;;;;60.80;15.68;;;10.00;91.70;;;;;;5090484;28;20123;-55
2022/12/01 00:31:09;;;;;;;67.22;16.17;;;10.00;91.70;;;;;;5107407;28;20028;-55
2022/12/01 00:33:35;;;;;;;58.50;16.25;;;10.00;91.70;;;;;;5107321;28;20035;-55
2022/12/01 00:36:00;;;;;;;69.43;17.90;;;10.00;91.70;;;;;;5107493;28;20034;-55
2022/12/01 00:38:26;;;;;;;60.00;15.93;;;9.90;91.70;;;;;;5125441;28;20102;-55
2022/12/01 00:40:52;;;;;;;67.10;16.42;;;9.90;91.70;;;;;;5107389;28;20027;-55
2022/12/01 00:43:17;;;;;;;59.88;17.13;;;9.90;91.70;;;;;;5106305;28;20039;-55
2022/12/01 00:45:43;;;;;;;57.13;15.55;;;9.90;91.70;;;;;;5106962;28;20047;-55
2022/12/01 00:48:08;;;;;;;63.13;15.10;;;9.90;91.80;;;;;;5107194;28;20031;-55
2022/12/01 00:50:34;;;;;;;58.75;15.95;;;9.90;91.80;;;;;;5090257;28;20039;-55
2022/12/01 00:52:59;;;;;;;46.47;15.27;;;9.80;91.70;;;;;;5107277;28;20046;-55
2022/12/01 00:55:25;;;;;;;50.65;14.65;;;9.80;91.70;;;;;;5106909;28;20023;-55
2022/12/01 00:57:50;;;;;;;43.85;14.45;;;9.80;91.70;;;;;;5090148;28;20040;-55
2022/12/01 01:00:16;;;;;;;50.67;16.10;;;9.80;91.70;;;;;;5089916;28;20012;-55
2022/12/01 01:02:42;;;;;;;52.30;16.13;;;9.80;91.80;;;;;;5106808;28;20051;-56
2022/12/01 01:05:08;;;;;;;52.60;14.15;;;9.80;91.80;;;;;;5106862;28;20027;-55
2022/12/01 01:07:33;;;;;;;47.08;15.07;;;9.80;91.80;;;;;;5124770;28;20035;-56
2022/12/01 01:09:59;;;;;;;54.13;14.90;;;9.80;91.70;;;;;;5090416;28;20056;-55
2022/12/01 01:12:26;;;;;;;46.78;15.15;;;9.80;91.70;;;;;;5106856;28;20031;-55
2022/12/01 01:14:52;;;;;;;56.55;15.35;;;9.80;91.70;;;;;;5125055;28;20038;-55
2022/12/01 01:17:17;;;;;;;53.28;15.38;;;9.70;91.70;;;;;;5106747;28;20016;-55
2022/12/01 01:19:43;;;;;;;37.30;14.48;;;9.70;91.70;;;;;;5106889;28;20028;-55
2022/12/01 01:22:08;;;;;;;45.80;14.95;;;9.70;91.70;;;;;;5125037;28;20023;-55
2022/12/01 01:24:34;;;;;;;54.03;14.63;;;9.70;91.70;;;;;;5089939;28;20077;-56
2022/12/01 01:26:59;;;;;;;41.45;14.63;;;9.70;91.70;;;;;;5106904;28;20028;-55
2022/12/01 01:29:25;;;;;;;48.25;14.60;;;9.70;91.80;;;;;;5090161;28;20036;-55
2022/12/01 01:31:50;;;;;;;51.10;14.27;;;9.70;91.70;;;;;;5090053;28;20047;-55
2022/12/01 01:34:16;;;;;;;41.85;14.38;;;9.70;91.70;;;;;;5124869;28;20031;-55
2022/12/01 01:36:41;;;;;;;44.00;14.30;;;9.70;91.70;;;;;;5106632;28;20031;-55
2022/12/01 01:39:07;;;;;;;40.42;13.20;;;9.60;91.80;;;;;;5089642;28;20059;-55
2022/12/01 01:41:32;;;;;;;42.97;14.30;;;9.60;91.70;;;;;;5106413;28;20050;-55
2022/12/01 01:44:02;;;;;;;47.22;13.18;;;9.60;91.70;;;;;;5106837;28;20072;-55
2022/12/01 01:46:28;;;;;;;39.28;13.40;;;9.60;91.70;;;;;;5106399;28;20084;-55
2022/12/01 01:49:04;;;;;;;40.45;13.88;;;9.60;91.70;;;;;;5124785;28;20032;-55
2022/12/01 01:51:39;;;;;;;50.58;14.80;;;9.60;91.80;;;;;;5073442;28;20027;-55
2022/12/01 01:54:14;;;;;;;43.85;14.23;;;9.60;92.00;;;;;;5090486;28;20043;-55
2022/12/01 01:56:40;;;;;;;39.75;14.23;;;9.60;92.10;;;;;;5111102;28;20119;-55
2022/12/01 01:59:06;;;;;;;40.40;15.18;;;9.60;92.20;;;;;;5093208;28;20040;-55
2022/12/01 02:01:31;;;;;;;41.30;15.30;;;9.60;92.30;;;;;;5110025;28;20053;-55
2022/12/01 02:03:57;;;;;;;45.10;15.18;;;9.60;92.50;;;;;;5093361;28;20052;-55
2022/12/01 02:06:23;;;;;;;49.42;16.23;;;9.60;92.60;;;;;;5093310;28;20030;-55
2022/12/01 02:08:49;;;;;;;53.20;15.82;;;9.60;92.70;;;;;;5128659;28;20448;-56
2022/12/01 02:12:05;;;;;;;42.83;15.23;;;9.60;92.80;;;;;;5110510;28;20031;-55
2022/12/01 02:14:38;;;;;;;41.15;15.60;;;9.60;92.40;;;;;;5025988;28;20034;-55
2022/12/01 02:17:28;;;;;;;53.35;16.05;;;9.50;92.30;;;;;;5009725;28;20040;-55
2022/12/01 02:20:26;;;;;;;37.72;14.75;;;9.60;92.40;;;;;;5078360;28;20051;-55
2022/12/01 02:23:03;;;;;;;41.17;14.50;;;9.60;92.70;;;;;;5110045;28;20081;-55
2022/12/01 02:25:45;;;;;;;43.55;14.48;;;9.60;92.30;;;;;;5109412;28;20077;-55
2022/12/01 02:28:39;;;;;;;41.38;14.27;;;9.60;92.30;;;;;;5111567;28;20091;-55
2022/12/01 02:31:28;;;;;;;36.60;15.07;;;9.60;92.30;;;;;;5127940;28;20081;-55
2022/12/01 02:34:13;;;;;;;31.95;14.32;;;9.60;92.40;;;;;;5094156;28;20031;-55
2022/12/01 02:36:59;;;;;;;33.53;15.13;;;9.50;92.40;;;;;;5092723;28;20035;-55
2022/12/01 02:40:00;;;;;;;34.80;14.95;;;9.50;92.40;;;;;;5109506;28;20035;-55
2022/12/01 02:43:02;;;;;;;42.13;16.50;;;9.50;92.40;;;;;;5094842;28;20027;-55
2022/12/01 02:45:44;;;;;;;33.88;15.50;;;9.50;92.40;;;;;;5105168;28;20154;-55
2022/12/01 02:48:13;;;;;;;34.42;16.00;;;9.50;92.40;;;;;;5092833;28;20032;-55
2022/12/01 02:50:39;;;;;;;41.25;17.25;;;9.50;92.40;;;;;;5092922;28;20036;-55
2022/12/01 02:53:04;;;;;;;41.83;16.80;;;9.50;92.40;;;;;;5092831;28;20116;-55
2022/12/01 02:55:30;;;;;;;39.17;16.95;;;9.40;92.40;;;;;;5092352;28;20365;-55
2022/12/01 02:57:55;;;;;;;36.90;17.42;;;9.40;92.40;;;;;;5127274;28;20206;-55
2022/12/01 03:00:21;;;;;;;48.85;18.02;;;9.40;92.40;;;;;;5127109;28;20015;-55
2022/12/01 03:02:50;;;;;;;44.17;17.75;;;9.40;92.50;;;;;;5108911;28;20031;-55
2022/12/01 03:05:25;;;;;;;49.17;19.48;;;9.40;92.50;;;;;;5108817;28;20012;-55
2022/12/01 03:08:14;;;;;;;34.57;18.17;;;9.40;92.60;;;;;;5126647;28;20038;-55
2022/12/01 03:11:00;;;;;;;38.45;19.70;;;9.40;92.50;;;;;;5111518;28;20031;-55
2022/12/01 03:13:36;;;;;;;42.03;19.25;;;9.40;92.40;;;;;;5091336;28;20039;-56
2022/12/01 03:16:11;;;;;;;36.70;19.20;;;9.40;92.30;;;;;;5108753;28;20449;-53
2022/12/01 03:18:59;;;;;;;36.05;18.60;;;9.40;92.30;;;;;;5091597;28;20032;-55
2022/12/01 03:21:37;;;;;;;34.65;18.30;;;9.40;92.30;;;;;;5091534;28;20045;-55
2022/12/01 03:24:11;;;;;;;41.22;18.70;;;9.30;92.30;;;;;;5108835;28;20062;-55
2022/12/01 03:26:37;;;;;;;39.30;18.60;;;9.40;92.20;;;;;;5109359;28;20035;-55
2022/12/01 03:29:08;;;;;;;30.48;17.85;;;9.40;92.10;;;;;;5108288;28;20035;-55
2022/12/01 03:31:39;;;;;;;36.00;19.08;;;9.30;92.10;;;;;;5092054;28;20046;-55
2022/12/01 03:34:16;;;;;;;34.90;17.63;;;9.30;92.00;;;;;;5092985;28;20027;-55
2022/12/01 03:36:47;;;;;;;33.45;17.70;;;9.30;91.90;;;;;;5092838;28;20031;-55
2022/12/01 03:39:15;;;;;;;33.85;17.35;;;9.30;91.90;;;;;;5091726;28;20562;-55
2022/12/01 03:41:45;;;;;;;33.10;16.15;;;9.30;91.90;;;;;;5091448;28;20015;-56
2022/12/01 03:44:20;;;;;;;34.97;16.77;;;9.30;91.80;;;;;;5092004;28;20051;-55
2022/12/01 03:46:50;;;;;;;32.53;17.98;;;9.30;91.80;;;;;;5075151;28;20019;-55
2022/12/01 03:49:16;;;;;;;35.45;16.35;;;9.30;91.80;;;;;;5091278;28;20032;-55
2022/12/01 03:52:09;;;;;;;34.10;16.48;;;9.30;91.80;;;;;;5091234;28;20042;-55
2022/12/01 03:54:57;;;;;;;30.52;17.45;;;9.30;91.70;;;;;;5109443;28;20024;-55
2022/12/01 03:57:29;;;;;;;32.40;15.80;;;9.30;91.60;;;;;;5126317;28;20059;-55
2022/12/01 03:59:54;;;;;;;30.27;16.45;;;9.30;91.50;;;;;;5090998;28;20047;-55
2022/12/01 04:02:20;;;;;;;30.38;15.98;;;9.20;91.80;;;;;;5090996;28;20027;-55
2022/12/01 04:04:45;;;;;;;37.70;15.93;;;9.20;91.50;;;;;;5090954;28;20326;-55
2022/12/01 04:07:12;;;;;;;30.83;15.85;;;9.20;91.50;;;;;;5126286;28;20051;-55
2022/12/01 04:09:40;;;;;;;37.53;16.48;;;9.20;91.50;;;;;;5107900;28;20028;-55
2022/12/01 04:14:50;;;;;;;32.30;15.93;;;9.20;91.40;;;;;;5096221;28;20049;-55
2022/12/01 04:17:15;;;;;;;26.83;15.82;;;9.20;91.40;;;;;;5126049;28;20205;-55
2022/12/01 04:19:41;;;;;;;29.35;16.23;;;9.20;91.40;;;;;;5090177;28;20058;-55
2022/12/01 04:22:07;;;;;;;24.85;15.43;;;9.20;91.60;;;;;;5125944;28;20027;-55
2022/12/01 04:24:32;;;;;;;33.22;16.50;;;9.20;91.30;;;;;;5090321;28;20480;-55
2022/12/01 04:26:58;;;;;;;28.23;16.00;;;9.20;91.30;;;;;;5107324;28;20020;-55
2022/12/01 04:29:23;;;;;;;24.20;15.57;;;9.20;91.60;;;;;;5107464;28;20055;-55
2022/12/01 04:31:49;;;;;;;28.90;16.23;;;9.20;91.20;;;;;;5090511;28;20032;-55
2022/12/01 04:34:14;;;;;;;23.33;15.07;;;9.20;91.20;;;;;;5107430;28;20369;-55
2022/12/01 04:36:40;;;;;;;32.17;15.77;;;9.10;91.10;;;;;;5125820;28;20068;-55
2022/12/01 04:39:05;;;;;;;28.88;14.93;;;9.20;91.10;;;;;;5107298;28;20032;-55
2022/12/01 04:41:31;;;;;;;27.77;15.05;;;9.10;91.20;;;;;;5125506;28;20016;-56
2022/12/01 04:43:56;;;;;;;27.90;15.32;;;9.10;91.20;;;;;;5107297;28;20118;-55
2022/12/01 04:46:22;;;;;;;31.17;14.52;;;9.10;91.20;;;;;;5090296;28;20111;-55
2022/12/01 04:48:48;;;;;;;29.75;14.63;;;9.10;91.10;;;;;;5125531;28;20100;-55
2022/12/01 04:51:13;;;;;;;30.65;14.40;;;9.10;91.10;;;;;;5106990;28;20407;-55
2022/12/01 04:53:39;;;;;;;24.52;14.10;;;9.10;91.00;;;;;;5090249;28;20104;-55
2022/12/01 04:56:04;;;;;;;23.30;13.85;;;9.10;91.00;;;;;;5107009;28;20025;-55
2022/12/01 04:58:31;;;;;;;28.83;14.80;;;9.10;91.30;;;;;;5090227;28;20027;-55
2022/12/01 05:01:04;;;;;;;27.15;15.10;;;9.00;91.10;;;;;;5125328;28;20036;-55
2022/12/01 05:03:29;;;;;;;23.23;14.80;;;9.10;91.10;;;;;;5106860;28;20028;-55
2022/12/01 05:06:06;;;;;;;26.42;15.02;;;9.10;91.10;;;;;;5107067;28;20080;-55
2022/12/01 05:08:33;;;;;;;26.27;13.85;;;9.00;91.00;;;;;;5073331;28;20059;-55
2022/12/01 05:10:58;;;;;;;38.38;15.50;;;9.00;91.00;;;;;;5107200;28;20095;-55
2022/12/01 05:13:24;;;;;;;29.27;15.30;;;9.10;91.10;;;;;;5107191;28;20457;-55
2022/12/01 05:15:49;;;;;;;27.77;14.07;;;9.10;91.10;;;;;;5106809;28;20028;-55
2022/12/01 05:18:15;;;;;;;30.38;15.45;;;9.10;91.20;;;;;;5089553;28;20051;-55
2022/12/01 05:20:56;;;;;;;31.80;14.95;;;9.00;91.10;;;;;;5106850;28;20035;-55
2022/12/01 05:23:31;;;;;;;24.52;15.48;;;9.00;91.10;;;;;;5106653;28;20023;-55
2022/12/01 05:25:56;;;;;;;24.75;13.85;;;9.00;91.20;;;;;;5106714;28;20061;-55
2022/12/01 05:28:23;;;;;;;29.25;14.23;;;9.00;91.20;;;;;;5107245;28;20036;-55
2022/12/01 05:30:49;;;;;;;29.90;14.65;;;9.00;91.20;;;;;;5109537;28;20054;-55
2022/12/01 05:33:14;;;;;;;35.42;15.57;;;9.00;91.10;;;;;;5093509;28;20031;-55
2022/12/01 05:35:40;;;;;;;26.23;14.60;;;9.00;91.20;;;;;;5093449;28;20032;-56
2022/12/01 05:38:05;;;;;;;30.88;15.00;;;9.00;91.20;;;;;;5129153;28;20049;-55
2022/12/01 05:40:31;;;;;;;28.90;14.85;;;9.00;91.10;;;;;;5093703;28;20405;-55
2022/12/01 05:42:57;;;;;;;24.40;15.55;;;9.00;91.10;;;;;;5093385;28;20039;-55
2022/12/01 05:45:23;;;;;;;33.05;14.73;;;9.00;91.20;;;;;;5110547;28;20510;-55
2022/12/01 05:47:48;;;;;;;22.10;13.82;;;9.00;91.20;;;;;;5110404;28;20058;-56
2022/12/01 05:50:14;;;;;;;25.90;14.02;;;9.00;91.20;;;;;;5109976;28;20035;-55
2022/12/01 05:52:39;;;;;;;28.60;13.40;;;9.00;91.30;;;;;;5093365;28;20032;-55
2022/12/01 05:55:05;;;;;;;25.15;14.23;;;9.00;91.30;;;;;;5128822;28;20024;-55
2022/12/01 05:57:31;;;;;;;18.65;14.02;;;9.00;91.30;;;;;;5110048;28;20027;-55
2022/12/01 05:59:57;;;;;;;24.25;14.23;;;9.00;91.40;;;;;;5110297;28;20059;-55
2022/12/01 06:02:25;;;;;;;36.40;14.40;;;9.00;91.40;;;;;;5110242;28;20036;-55
2022/12/01 06:04:51;;;;;;;25.33;14.27;;;9.00;91.40;;;;;;5110503;28;20103;-55
2022/12/01 06:07:16;;;;;;;27.63;14.38;;;9.00;91.50;;;;;;5128671;28;20031;-55
2022/12/01 06:09:45;;;;;;;21.45;12.70;;;9.00;91.50;;;;;;5110132;28;20145;-55
2022/12/01 06:12:11;;;;;;;25.90;14.52;;;9.00;91.50;;;;;;5093994;28;20024;-56
2022/12/01 06:14:36;;;;;;;29.20;14.48;;;9.00;91.50;;;;;;5110474;28;20039;-55
2022/12/01 06:17:02;;;;;;;23.40;13.93;;;9.00;91.50;;;;;;5128504;28;20472;-55
2022/12/01 06:19:27;;;;;;;25.33;13.70;;;9.00;91.50;;;;;;5128515;28;20361;-55
2022/12/01 06:21:53;;;;;;;21.05;14.55;;;9.00;91.60;;;;;;5110584;28;20373;-55
2022/12/01 06:24:18;;;;;;;25.17;13.70;;;9.00;91.80;;;;;;5128174;28;20054;-56
2022/12/01 06:26:44;;;;;;;24.75;13.80;;;9.00;91.90;;;;;;5128074;28;20028;-55
2022/12/01 06:29:09;;;;;;;21.05;13.45;;;9.00;91.80;;;;;;5092592;28;20036;-55
2022/12/01 06:31:35;;;;;;;20.05;14.35;;;9.00;91.80;;;;;;5128024;28;20050;-55
2022/12/01 06:34:01;;;;;;;24.50;13.80;;;9.00;91.80;;;;;;5109484;28;20429;-55
2022/12/01 06:36:26;;;;;;;21.48;13.77;;;9.00;91.90;;;;;;5109430;28;20028;-55
2022/12/01 06:38:52;;;;;;;55.67;17.60;;;9.00;91.90;;;;;;5109541;28;20023;-55
2022/12/01 06:41:17;;;;;;;55.92;16.60;;;8.90;91.90;;;;;;5126580;28;20023;-55
2022/12/01 06:43:43;;;;;;;51.15;15.93;;;9.00;91.90;;;;;;5109456;28;20062;-55
2022/12/01 06:46:08;;;;;;;38.72;14.55;;;9.00;91.90;;;;;;5127841;28;20051;-55
2022/12/01 06:48:34;;;;;;;35.63;15.20;;;9.00;91.80;;;;;;5092504;28;20043;-55
2022/12/01 06:51:00;;;;;;;58.17;16.42;;;8.90;91.80;;;;;;5109404;28;20053;-55
2022/12/01 06:53:27;;;;;;;40.97;15.55;;;8.90;91.80;;;;;;5092345;28;20032;-55
2022/12/01 06:55:53;;;;;;;49.85;15.40;;;8.90;91.80;;;;;;5109429;28;20032;-55
2022/12/01 06:58:18;;;;;;;50.90;16.02;;;8.90;91.80;;;;;;5109243;28;20054;-55
2022/12/01 07:00:44;;;;;;;42.47;15.00;;;8.90;91.70;;;;;;5108973;28;20020;-56
2022/12/01 07:03:09;;;;;;;48.05;16.95;;;8.90;91.60;;;;;;5108850;28;20040;-55
2022/12/01 07:05:35;;;;;;;45.40;15.48;;;8.90;91.70;;;;;;5108910;28;20038;-54
2022/12/01 07:08:01;;;;;;;55.75;15.65;;;8.90;91.70;;;;;;5074972;28;20032;-55
2022/12/01 07:10:26;;;;;;;53.00;16.55;;;8.90;91.60;;;;;;5108810;28;20024;-55
2022/12/01 07:12:54;;;;;;;45.83;15.45;;;8.90;91.60;;;;;;5127314;28;20039;-55
2022/12/01 07:15:20;;;;;;;48.17;16.13;;;8.90;91.60;;;;;;5104225;28;20075;-55
2022/12/01 07:17:45;;;;;;;61.50;16.42;;;8.90;91.50;;;;;;5125146;28;20035;-55
2022/12/01 07:20:11;;;;;;;51.83;16.38;;;8.90;91.50;;;;;;5107351;28;20020;-55
2022/12/01 07:22:38;;;;;;;50.92;16.80;;;8.90;91.50;;;;;;5107467;28;20036;-55
2022/12/01 07:25:04;;;;;;;59.95;17.75;;;8.90;91.50;;;;;;5090657;28;20587;-55
2022/12/01 07:27:30;;;;;;;64.97;17.77;;;8.80;91.50;;;;;;5107963;28;20106;-55
2022/12/01 07:29:56;;;;;;;55.75;16.80;;;8.90;91.50;;;;;;5108366;28;20035;-55
2022/12/01 07:32:21;;;;;;;70.90;17.20;;;8.90;91.50;;;;;;5126398;28;20064;-55
2022/12/01 07:34:47;;;;;;;70.80;16.75;;;8.80;91.50;;;;;;5108360;28;20040;-55
2022/12/01 07:37:12;;;;;;;46.35;16.80;;;8.90;91.40;;;;;;5091358;28;20024;-55
2022/12/01 07:39:38;;;;;;;44.90;15.98;;;8.90;91.30;;;;;;5108093;28;20051;-55
2022/12/01 07:42:04;;;;;;;64.72;16.80;;;8.90;91.20;;;;;;5107868;28;20057;-55
2022/12/01 07:44:29;;;;;;;56.58;17.45;;;8.90;91.20;;;;;;5126241;28;20020;-55
2022/12/01 07:46:55;;;;;;;59.60;16.20;;;8.90;91.20;;;;;;5106841;28;20031;-55
2022/12/01 07:49:20;;;;;;;73.70;18.17;;;8.80;91.20;;;;;;5107810;28;20044;-57
2022/12/01 07:51:46;;;;;;;50.85;15.75;;;8.80;91.50;;;;;;5108089;28;20031;-57
2022/12/01 07:54:15;;;;;;;58.58;16.70;;;8.80;91.20;;;;;;5090800;28;20027;-57
2022/12/01 07:56:41;;;;;;;71.05;17.08;;;8.90;91.20;;;;;;5126253;28;20058;-57
2022/12/01 07:59:06;;;;;;;65.80;16.35;;;8.80;91.20;;;;;;5090744;28;20032;-58
2022/12/01 08:01:32;;;;;;;105.38;19.38;;;8.80;91.10;;;;;;5107900;28;20073;-57
2022/12/01 08:03:58;;;;;;;64.40;17.60;;;8.90;91.10;;;;;;5107860;28;20020;-57
2022/12/01 08:06:24;;;;;;;55.33;17.73;;;8.90;91.10;;;;;;5107471;28;20062;-57
2022/12/01 08:08:49;;;;;;;67.43;17.10;;;8.90;91.10;;;;;;5107585;28;20031;-57
2022/12/01 08:11:20;;;;;;;139.75;26.88;;;8.90;91.10;;;;;;5101428;28;20492;-57
2022/12/01 08:13:46;;;;;;;67.32;18.70;;;8.80;91.00;;;;;;5086064;28;20481;-57
2022/12/01 08:16:14;;;;;;;63.17;17.70;;;8.90;91.00;;;;;;5118540;28;20119;-56
2022/12/01 08:18:39;;;;;;;72.00;17.98;;;8.90;91.00;;;;;;5090498;28;20031;-57
2022/12/01 08:21:06;;;;;;;64.30;17.05;;;8.90;91.00;;;;;;5090879;28;20085;-57
2022/12/01 08:23:32;;;;;;;44.92;16.52;;;8.80;91.00;;;;;;5106018;28;20031;-57
2022/12/01 08:26:05;;;;;;;45.05;16.23;;;8.80;91.00;;;;;;5085332;28;20078;-57
2022/12/01 08:28:30;;;;;;;73.97;17.60;;;8.90;91.00;;;;;;5099267;28;20460;-57
2022/12/01 08:30:56;;;;;;;43.75;17.58;;;8.80;90.90;;;;;;5124215;28;20031;-57
2022/12/01 08:33:21;;;;;;;50.88;17.13;;;8.80;90.90;;;;;;5091606;28;20031;-57
2022/12/01 08:35:47;;;;;;;99.18;18.98;;;8.90;90.80;;;;;;5117538;28;20471;-57
2022/12/01 08:38:12;;;;;;;56.08;17.67;;;8.90;90.80;;;;;;5106977;28;20401;-57
2022/12/01 08:40:38;;;;;;;54.60;17.70;;;8.90;90.80;;;;;;5094003;28;20034;-57
2022/12/01 08:43:04;;;;;;;69.32;18.88;;;8.90;90.80;;;;;;5107127;28;20046;-56
2022/12/01 08:45:29;;;;;;;94.72;22.30;;;8.90;90.70;;;;;;5107057;28;20087;-55
2022/12/01 08:47:58;;;;;;;66.97;18.67;;;8.90;90.70;;;;;;5107270;28;20080;-55
2022/12/01 08:50:25;;;;;;;46.60;18.05;;;8.90;90.70;;;;;;5124976;28;20107;-55
2022/12/01 08:52:51;;;;;;;47.33;18.10;;;8.90;90.70;;;;;;5116020;28;20089;-55
2022/12/01 08:55:17;;;;;;;46.88;17.42;;;8.90;90.70;;;;;;5123978;28;20030;-55
2022/12/01 08:57:42;;;;;;;57.95;18.17;;;8.90;90.60;;;;;;5104089;28;20040;-55
2022/12/01 09:00:09;;;;;;;64.20;18.88;;;8.90;90.60;;;;;;5102933;28;20032;-55
2022/12/01 09:02:34;;;;;;;63.30;17.90;;;8.90;90.60;;;;;;5111699;28;20106;-55
2022/12/01 09:05:00;;;;;;;54.72;18.90;;;8.90;90.90;;;;;;5072346;28;20020;-59
2022/12/01 09:07:25;;;;;;;45.67;18.00;;;8.90;90.90;;;;;;5125061;28;20024;-55
2022/12/01 09:09:51;;;;;;;70.22;19.33;;;8.90;90.50;;;;;;5102156;28;20035;-55
2022/12/01 09:12:16;;;;;;;60.97;18.20;;;8.90;90.50;;;;;;5116338;28;20031;-55
2022/12/01 09:14:46;;;;;;;48.08;17.77;;;8.90;90.50;;;;;;5102554;28;20035;-55
2022/12/01 09:17:12;;;;;;;44.90;17.27;;;8.90;90.50;;;;;;5107149;28;20105;-55
2022/12/01 09:19:38;;;;;;;54.55;18.25;;;8.90;90.50;;;;;;5105991;28;20098;-55
2022/12/01 09:22:03;;;;;;;70.10;17.98;;;8.80;90.40;;;;;;5089530;28;20024;-54
2022/12/01 09:24:29;;;;;;;62.92;18.95;;;8.90;90.40;;;;;;5106750;28;20024;-55
2022/12/01 09:26:55;;;;;;;71.20;20.77;;;8.90;90.50;;;;;;5125015;28;20032;-55
2022/12/01 09:29:21;;;;;;;58.45;18.58;;;8.90;90.60;;;;;;5089551;28;20469;-55
2022/12/01 09:31:46;;;;;;;71.25;19.80;;;8.80;90.60;;;;;;5119035;28;20043;-55
2022/12/01 09:34:17;;;;;;;77.65;19.27;;;8.90;90.60;;;;;;5106470;28;20036;-55
2022/12/01 09:36:42;;;;;;;72.10;20.13;;;8.80;90.60;;;;;;5102178;28;20462;-55
2022/12/01 09:39:11;;;;;;;73.65;19.70;;;8.80;90.60;;;;;;5103752;28;20036;-55
2022/12/01 09:41:37;;;;;;;98.53;22.77;;;8.80;90.60;;;;;;5102464;28;20016;-55
2022/12/01 09:44:12;;;;;;;88.97;21.27;;;8.90;90.70;;;;;;5102891;28;20020;-55
2022/12/01 09:46:42;;;;;;;84.03;20.05;;;8.90;90.70;;;;;;5103180;28;20040;-55
2022/12/01 09:49:14;;;;;;;64.10;18.70;;;8.80;90.70;;;;;;5103057;28;20032;-55
2022/12/01 09:51:40;;;;;;;85.22;20.83;;;8.90;90.70;;;;;;5102789;28;20032;-55
2022/12/01 09:54:05;;;;;;;90.75;21.40;;;8.90;90.80;;;;;;5104073;28;20043;-55
2022/12/01 09:56:43;;;;;;;73.38;20.33;;;8.90;90.70;;;;;;5085620;28;20032;-55
2022/12/01 09:59:16;;;;;;;63.05;20.25;;;8.90;90.60;;;;;;5085554;28;20031;-55
2022/12/01 10:01:42;;;;;;;76.13;21.40;;;8.90;90.60;;;;;;5086166;28;20489;-55
2022/12/01 10:04:33;;;;;;;77.63;20.65;;;8.90;90.50;;;;;;5085692;28;20024;-55
2022/12/01 10:07:02;;;;;;;72.65;21.13;;;8.90;90.50;;;;;;5104189;28;20024;-55
2022/12/01 10:09:34;;;;;;;81.93;22.45;;;8.90;90.50;;;;;;5103207;28;20101;-55
2022/12/01 10:12:26;;;;;;;80.93;21.02;;;8.90;90.50;;;;;;5103700;28;20028;-57
2022/12/01 10:14:53;;;;;;;83.82;20.88;;;8.90;90.50;;;;;;5086468;28;20028;-57
2022/12/01 10:17:41;;;;;;;72.65;19.42;;;8.90;90.40;;;;;;5106888;28;20035;-57
2022/12/01 10:20:17;;;;;;;72.20;20.25;;;8.90;90.40;;;;;;5110828;28;20066;-57
2022/12/01 10:23:01;;;;;;;63.65;20.40;;;8.90;90.40;;;;;;5098214;28;20020;-57
2022/12/01 10:25:28;;;;;;;61.22;20.00;;;8.90;90.30;;;;;;5127506;28;20016;-58
2022/12/01 10:28:11;;;;;;;87.00;21.10;;;8.90;90.30;;;;;;5109931;28;20031;-57
2022/12/01 10:30:41;;;;;;;70.07;19.45;;;9.00;90.40;;;;;;5109111;28;20127;-57
2022/12/01 10:33:24;;;;;;;70.40;18.02;;;9.00;90.30;;;;;;5109289;28;20027;-57
2022/12/01 10:35:50;;;;;;;69.65;18.45;;;9.00;90.30;;;;;;5109572;28;20119;-57
2022/12/01 10:38:27;;;;;;;71.63;18.98;;;9.00;90.30;;;;;;5127882;28;20171;-57
2022/12/01 10:40:54;;;;;;;58.05;18.90;;;9.00;90.40;;;;;;5109318;28;20028;-57
2022/12/01 10:43:35;;;;;;;46.58;18.80;;;8.90;90.30;;;;;;5092156;28;20046;-58
2022/12/01 10:46:14;;;;;;;63.85;17.90;;;9.00;90.30;;;;;;5109087;28;20027;-57
2022/12/01 10:49:05;;;;;;;64.93;19.02;;;9.00;90.30;;;;;;5109326;28;20046;-58
2022/12/01 10:51:31;;;;;;;52.88;18.75;;;9.00;90.30;;;;;;5111188;28;20035;-58
2022/12/01 10:53:58;;;;;;;74.63;18.45;;;9.00;90.30;;;;;;5109190;28;20051;-58
2022/12/01 10:56:23;;;;;;;52.42;18.48;;;9.00;90.30;;;;;;5109481;28;20059;-58
2022/12/01 10:58:51;;;;;;;74.03;20.55;;;9.00;90.60;;;;;;5109092;28;20040;-57
2022/12/01 11:01:35;;;;;;;58.30;17.65;;;9.00;90.40;;;;;;5108971;28;20050;-57
2022/12/01 11:04:23;;;;;;;71.22;20.30;;;9.00;90.50;;;;;;5109187;28;20024;-57
2022/12/01 11:06:49;;;;;;;72.72;20.30;;;9.00;90.40;;;;;;5127177;28;20075;-57
2022/12/01 11:09:25;;;;;;;54.60;18.48;;;9.00;90.40;;;;;;5108517;28;20035;-57
2022/12/01 11:11:58;;;;;;;53.35;19.73;;;9.00;90.40;;;;;;5108458;28;20031;-57
2022/12/01 11:14:44;;;;;;;47.40;18.77;;;9.00;90.40;;;;;;5108025;28;20027;-57
2022/12/01 11:17:29;;;;;;;;;;;9.00;90.50;;;;;;5107113;28;20114;-57
2022/12/01 11:19:55;;;;;;;51.60;18.08;;;9.00;90.40;;;;;;5107693;28;19915;-58
2022/12/01 11:22:23;;;;;;;67.05;19.80;;;9.30;90.60;;;;;;5126169;28;20031;-57
2022/12/01 11:24:51;;;;;;;65.38;18.92;;;9.00;90.50;;;;;;5126435;28;20027;-57
2022/12/01 11:27:22;;;;;;;59.63;19.23;;;9.10;90.60;;;;;;5125004;28;20024;-57
2022/12/01 11:29:49;;;;;;;71.65;21.20;;;9.00;90.60;;;;;;5106921;28;20028;-57
2022/12/01 11:32:16;;;;;;;79.35;19.23;;;9.00;90.60;;;;;;5104356;28;20131;-57
2022/12/01 11:34:50;;;;;;;85.78;20.23;;;9.10;90.60;;;;;;5096863;28;20028;-57
2022/12/01 11:37:16;;;;;;;86.97;20.13;;;9.10;90.60;;;;;;5098139;28;20395;-57
2022/12/01 11:39:43;;;;;;;96.90;24.88;;;9.10;90.70;;;;;;5107088;28;20046;-57
2022/12/01 11:42:28;;;;;;;89.05;22.80;;;9.10;90.70;;;;;;5107562;28;20190;-57
2022/12/01 11:44:56;;;;;;;84.43;20.15;;;9.10;90.80;;;;;;5097705;28;20024;-57
2022/12/01 11:47:25;;;;;;;65.55;19.02;;;9.10;90.80;;;;;;5106552;28;20062;-57
2022/12/01 11:50:02;;;;;;;71.63;19.75;;;9.10;90.70;;;;;;5106129;28;20128;-58
2022/12/01 11:52:33;;;;;;;70.57;20.38;;;9.20;90.70;;;;;;5106658;28;20031;-57
2022/12/01 11:55:12;;;;;;;79.60;21.98;;;9.20;90.70;;;;;;5090019;28;20073;-58
2022/12/01 11:57:40;;;;;;;115.38;23.33;;;9.20;90.90;;;;;;5123358;28;20103;-57
2022/12/01 12:00:22;;;;;;;115.85;24.33;;;9.20;90.90;;;;;;5106903;28;20036;-58
2022/12/01 12:03:11;;;;;;;101.55;22.55;;;9.20;91.00;;;;;;5109415;28;20084;-57
2022/12/01 12:05:55;;;;;;;82.00;20.98;;;9.20;91.00;;;;;;5110971;28;20051;-57
2022/12/01 12:08:53;;;;;;;99.90;23.48;;;9.20;91.10;;;;;;5107342;28;20028;-58
2022/12/01 12:11:18;;;;;;;83.78;22.38;;;9.20;91.00;;;;;;5125541;28;20032;-57
2022/12/01 12:14:05;;;;;;;91.78;23.35;;;9.30;91.00;;;;;;5107260;28;20384;-57
2022/12/01 12:16:50;;;;;;;117.55;23.80;;;9.20;91.00;;;;;;5125513;28;20047;-57
2022/12/01 12:19:42;;;;;;;78.47;23.05;;;9.30;91.20;;;;;;5089744;28;20023;-58
2022/12/01 12:22:38;;;;;;;97.40;23.27;;;9.30;91.10;;;;;;5106722;28;20469;-57
2022/12/01 12:25:22;;;;;;;88.57;22.23;;;9.30;91.10;;;;;;5125391;28;20028;-57
2022/12/01 12:28:09;;;;;;;100.00;21.65;;;9.30;91.00;;;;;;5106919;28;20407;-57
2022/12/01 12:30:47;;;;;;;92.47;22.85;;;9.30;90.90;;;;;;5125317;28;20087;-57
2022/12/01 12:33:23;;;;;;;84.03;22.27;;;9.30;91.00;;;;;;5108477;28;20051;-57
2022/12/01 12:36:08;;;;;;;;;;;9.20;91.00;;;;;;5107601;28;20032;-57
2022/12/01 12:38:43;;;;;;;61.25;19.63;;;9.20;91.00;;;;;;5079797;28;19923;-58
2022/12/01 12:41:30;;;;;;;69.65;20.33;;;9.20;91.00;;;;;;5102237;28;20087;-58
2022/12/01 12:44:02;;;;;;;137.25;26.10;;;9.20;91.00;;;;;;5102678;28;20047;-57
2022/12/01 12:46:34;;;;;;;81.57;21.92;;;9.20;91.10;;;;;;5086312;28;20016;-58
2022/12/01 12:49:24;;;;;;;84.35;20.95;;;9.20;91.10;;;;;;5086325;28;20086;-58
2022/12/01 12:52:06;;;;;;;89.85;19.80;;;9.20;91.10;;;;;;5103049;28;20027;-57
2022/12/01 12:54:46;;;;;;;78.85;20.23;;;9.20;91.10;;;;;;5106412;28;20040;-58
2022/12/01 12:57:26;;;;;;;72.55;20.55;;;9.20;91.10;;;;;;5090854;28;20023;-57